Latest Weather Observations for Bridgetown

IDW60801

Issued at 11:32 am WST Thursday 30 July 2015 (issued every 30 minutes, with the page automatically refreshed every 10 minutes)

About weather observations | Map of weather stations | Latest weather observations for WA | Other Formats
Station Details ID: 009617 Name: BRIDGETOWN Lat: -33.95 Lon: 116.13 Height: 178.66 m
Data from the previous 72 hours. | See also: Recent months at Bridgetown
Date/Time
WST
Temp
°C
App
Temp
°C
Dew
Point
Rel
Hum
%
Delta-T
°C
Wind Press
QNH
hPa
Press
MSL
hPa
Rain
since 9 am
mm
Dir
 
Spd
km/h
Gust
km/h
Spd
kts
Gust
kts
30/11:30am 14.1 14.6 14.1 100 0.0 SE 4 9 2 5 1020.8 1021.0 0.2
30/11:00am 13.6 13.5 13.4 99 0.1 E 6 17 3 9 1021.3 1021.5 0.0
30/10:30am 13.4 13.1 13.2 99 0.1 E 7 13 4 7 1021.5 1021.7 0.0
30/10:00am 13.2 12.4 13.0 99 0.1 ESE 9 13 5 7 1021.7 1021.9 0.0
30/09:30am 13.1 12.7 13.1 100 0.0 SE 7 13 4 7 1021.5 1021.7 0.0
30/09:00am 12.5 12.9 12.5 100 0.0 E 2 9 1 5 1021.5 1021.7 0.2
30/08:30am 12.3 11.9 12.3 100 0.0 S 6 6 3 3 1021.4 1021.6 0.2
30/08:00am 11.9 12.1 11.9 100 0.0 SSE 2 6 1 3 1021.2 1021.4 0.2
30/07:30am 11.7 11.5 11.7 100 0.0 SSE 4 9 2 5 1020.9 1021.1 0.2
30/07:00am 11.5 11.6 11.5 100 0.0 SE 2 6 1 3 1020.9 1021.1 0.2
30/06:30am 10.4 10.6 10.4 100 0.0 CALM 0 0 0 0 1020.5 1020.8 0.2
30/06:00am 10.0 10.1 10.0 100 0.0 CALM 0 0 0 0 1020.3 1020.5 0.2
30/05:30am 9.8 9.8 9.8 100 0.0 CALM 0 0 0 0 1020.2 1020.4 0.2
30/05:00am 9.5 9.4 9.5 100 0.0 CALM 0 0 0 0 1020.1 1020.3 0.2
30/04:30am 9.4 9.3 9.4 100 0.0 CALM 0 0 0 0 1020.1 1020.3 0.2
30/04:00am 9.3 9.2 9.3 100 0.0 CALM 0 0 0 0 1020.1 1020.3 0.2
30/03:30am 9.6 9.5 9.6 100 0.0 CALM 0 0 0 0 1020.1 1020.3 0.2
30/03:00am 9.8 9.8 9.8 100 0.0 CALM 0 0 0 0 1020.3 1020.5 0.2
30/02:30am 10.1 10.2 10.1 100 0.0 CALM 0 0 0 0 1020.3 1020.5 0.2
30/02:00am 9.5 9.4 9.5 100 0.0 CALM 0 0 0 0 1020.3 1020.5 0.2
30/01:30am 10.6 10.8 10.6 100 0.0 CALM 0 0 0 0 1020.4 1020.6 0.2
30/01:00am 10.5 10.7 10.5 100 0.0 CALM 0 0 0 0 1020.5 1020.8 0.2
30/12:30am 10.6 10.8 10.6 100 0.0 CALM 0 0 0 0 1020.5 1020.8 0.0
30/12:00am 9.8 9.8 9.8 100 0.0 CALM 0 0 0 0 1020.3 1020.5 0.0
 
Date/Time
WST
Temp
°C
App
Temp
°C
Dew
Point
Rel
Hum
%
Delta-T
°C
Wind Press
QNH
hPa
Press
MSL
hPa
Rain
since 9 am
mm
Dir
 
Spd
km/h
Gust
km/h
Spd
kts
Gust
kts
29/11:30pm 9.9 9.9 9.9 100 0.0 CALM 0 0 0 0 1020.2 1020.4 0.0
29/11:00pm 10.0 10.1 10.0 100 0.0 CALM 0 0 0 0 1020.2 1020.4 0.0
29/10:30pm 9.8 9.8 9.8 100 0.0 CALM 0 0 0 0 1020.2 1020.4 0.0
29/10:00pm 9.6 9.5 9.6 100 0.0 CALM 0 0 0 0 1020.4 1020.6 0.0
29/09:30pm 9.6 9.5 9.6 100 0.0 CALM 0 0 0 0 1020.4 1020.6 0.0
29/09:00pm 10.2 10.3 10.2 100 0.0 CALM 0 0 0 0 1019.9 1020.1 0.0
29/08:30pm 11.0 11.3 11.0 100 0.0 CALM 0 0 0 0 1019.6 1019.8 0.0
29/08:00pm 12.3 13.0 12.3 100 0.0 CALM 0 0 0 0 1019.4 1019.6 0.0
29/07:30pm 12.8 13.7 12.8 100 0.0 CALM 0 0 0 0 1019.2 1019.4 0.0
29/07:00pm 13.3 14.3 13.3 100 0.0 CALM 0 0 0 0 1018.7 1018.9 0.0
29/06:30pm 14.2 15.5 14.0 99 0.1 CALM 0 0 0 0 1018.5 1018.7 0.0
29/06:00pm 15.5 17.2 15.2 98 0.2 CALM 0 0 0 0 1018.0 1018.2 0.0
29/05:30pm 16.1 17.3 15.8 98 0.2 NW 4 6 2 3 1017.8 1018.0 0.0
29/05:00pm 16.6 17.7 15.6 94 0.6 NW 4 7 2 4 1017.6 1017.8 0.0
29/04:30pm 16.7 17.6 15.1 90 0.9 NW 4 7 2 4 1017.4 1017.6 0.0
29/04:00pm 17.4 16.9 15.0 86 1.4 NW 11 19 6 10 1017.1 1017.3 0.0
29/03:30pm 17.5 18.1 15.7 89 1.1 NW 7 13 4 7 1016.9 1017.1 0.0
29/03:00pm 17.1 17.5 15.3 89 1.1 NW 7 13 4 7 1017.0 1017.2 0.0
29/02:30pm 17.0 17.4 15.2 89 1.1 NW 7 15 4 8 1016.7 1016.9 0.0
29/02:00pm 16.9 16.5 14.2 84 1.6 NW 9 15 5 8 1016.4 1016.6 0.0
29/01:30pm 17.3 16.9 14.2 82 1.8 NW 9 17 5 9 1016.5 1016.7 0.0
29/01:00pm 17.0 17.4 15.2 89 1.1 NW 7 17 4 9 1016.9 1017.1 0.0
29/12:30pm 16.7 17.1 16.2 97 0.3 NW 9 19 5 10 1017.2 1017.4 0.0
29/12:00pm 16.5 16.5 16.2 98 0.2 N 11 15 6 8 1017.4 1017.6 0.0
29/11:30am 16.0 15.5 15.8 99 0.1 N 13 17 7 9 1017.6 1017.8 0.0
29/11:00am 14.8 14.6 14.8 100 0.0 N 9 15 5 8 1017.7 1017.9 0.0
29/10:30am 14.3 14.3 14.3 100 0.0 N 7 11 4 6 1018.1 1018.3 0.0
29/10:00am 14.0 14.1 14.0 100 0.0 NNW 6 9 3 5 1018.3 1018.5 0.0
29/09:30am 12.2 12.9 12.2 100 0.0 CALM 0 0 0 0 1018.2 1018.4 0.0
29/09:00am 11.7 12.2 11.7 100 0.0 CALM 0 0 0 0 1018.1 1018.3 0.8
29/08:30am 11.1 11.5 11.1 100 0.0 CALM 0 0 0 0 1018.2 1018.4 0.8
29/08:00am 10.7 10.9 10.7 100 0.0 CALM 0 0 0 0 1017.8 1018.0 0.8
29/07:30am 10.4 10.6 10.4 100 0.0 CALM 0 0 0 0 1017.5 1017.7 0.8
29/07:00am 10.3 10.4 10.3 100 0.0 CALM 0 0 0 0 1017.6 1017.8 0.8
29/06:30am 10.2 10.3 10.2 100 0.0 CALM 0 0 0 0 1017.4 1017.6 0.8
29/06:00am 9.9 9.9 9.9 100 0.0 CALM 0 0 0 0 1017.2 1017.4 0.8
29/05:30am 10.2 10.3 10.2 100 0.0 CALM 0 0 0 0 1016.9 1017.1 0.8
29/05:00am 10.4 10.6 10.4 100 0.0 CALM 0 0 0 0 1016.7 1016.9 0.8
29/04:30am 10.4 10.6 10.4 100 0.0 CALM 0 0 0 0 1016.7 1016.9 0.8
29/04:00am 10.3 10.4 10.3 100 0.0 CALM 0 0 0 0 1016.7 1016.9 0.8
29/03:30am 10.2 10.3 10.2 100 0.0 CALM 0 0 0 0 1016.7 1016.9 0.8
29/03:00am 10.1 10.2 10.1 100 0.0 CALM 0 0 0 0 1016.7 1016.9 0.8
29/02:30am 10.0 10.1 10.0 100 0.0 CALM 0 0 0 0 1016.7 1016.9 0.8
29/02:00am 9.9 9.9 9.9 100 0.0 CALM 0 0 0 0 1016.8 1017.0 0.8
29/01:30am 9.8 9.8 9.8 100 0.0 CALM 0 0 0 0 1016.9 1017.1 0.8
29/01:00am 9.3 9.2 9.3 100 0.0 CALM 0 0 0 0 1016.9 1017.1 0.8
29/12:30am 9.0 8.8 9.0 100 0.0 CALM 0 0 0 0 1016.9 1017.1 0.8
29/12:00am 9.1 8.9 9.1 100 0.0 CALM 0 0 0 0 1016.6 1016.8 0.8
 
Date/Time
WST
Temp
°C
App
Temp
°C
Dew
Point
Rel
Hum
%
Delta-T
°C
Wind Press
QNH
hPa
Press
MSL
hPa
Rain
since 9 am
mm
Dir
 
Spd
km/h
Gust
km/h
Spd
kts
Gust
kts
28/11:30pm 9.2 9.0 9.2 100 0.0 CALM 0 0 0 0 1016.9 1017.1 0.8
28/11:00pm 9.6 9.5 9.6 100 0.0 CALM 0 6 0 3 1016.9 1017.1 0.8
28/10:30pm 11.0 11.3 11.0 100 0.0 CALM 0 0 0 0 1017.0 1017.2 0.8
28/10:00pm 11.2 11.6 11.2 100 0.0 CALM 0 0 0 0 1017.0 1017.2 0.8
28/09:30pm 11.1 11.5 11.1 100 0.0 CALM 0 0 0 0 1016.9 1017.1 0.8
28/09:00pm 11.5 12.0 11.5 100 0.0 CALM 0 0 0 0 1017.1 1017.3 0.8
28/08:30pm 11.5 12.0 11.5 100 0.0 CALM 0 0 0 0 1017.0 1017.2 0.6
28/08:00pm 11.6 12.1 11.6 100 0.0 CALM 0 0 0 0 1016.8 1017.0 0.6
28/07:30pm 11.6 12.1 11.6 100 0.0 CALM 0 0 0 0 1016.7 1016.9 0.6
28/07:00pm 11.7 12.2 11.7 100 0.0 CALM 0 0 0 0 1016.4 1016.6 0.6
28/06:30pm 11.6 11.3 11.6 100 0.0 N 4 6 2 3 1016.0 1016.2 0.4
28/06:00pm 11.6 11.0 11.6 100 0.0 N 6 7 3 4 1015.7 1015.8 0.4
28/05:30pm 11.9 12.5 11.9 100 0.0 CALM 0 0 0 0 1015.8 1015.9 0.2
28/05:00pm 12.2 12.8 12.0 99 0.1 CALM 0 0 0 0 1015.6 1015.7 0.0
28/04:30pm 12.4 12.3 12.1 98 0.2 N 4 7 2 4 1015.4 1015.5 0.0
28/04:00pm 12.8 12.3 12.2 96 0.3 N 6 9 3 5 1015.2 1015.3 0.0
28/03:30pm 12.9 12.3 12.4 97 0.3 NNW 7 9 4 5 1015.4 1015.5 0.0
28/03:00pm 12.7 11.9 11.8 94 0.5 N 7 11 4 6 1015.4 1015.5 0.0
28/02:30pm 12.5 11.8 11.9 96 0.3 N 7 13 4 7 1015.6 1015.7 0.0
28/02:00pm 12.4 11.2 11.5 94 0.5 N 9 17 5 9 1015.9 1016.1 0.0
28/01:30pm 12.6 11.7 11.5 93 0.6 N 7 11 4 6 1016.1 1016.3 0.0
28/01:00pm 12.3 10.1 10.7 90 0.8 N 13 19 7 10 1016.4 1016.6 0.0
28/12:30pm 12.9 9.6 9.4 79 1.8 N 17 22 9 12 1016.9 1017.1 0.0
28/12:00pm 13.8 11.7 8.4 70 2.7 N 9 15 5 8 1017.4 1017.6 0.0
28/11:30am 13.5 11.1 8.8 73 2.4 N 11 19 6 10 1018.0 1018.2 0.0
28/11:00am 13.0 10.9 8.3 73 2.3 N 9 15 5 8 1018.6 1018.8 0.0
28/10:30am 12.8 11.4 8.7 76 2.1 NNE 6 11 3 6 1018.9 1019.1 0.0
28/10:00am 12.1 10.9 9.5 84 1.3 NE 6 11 3 6 1019.3 1019.5 0.0
28/09:30am 10.3 10.4 10.3 100 0.0 CALM 0 0 0 0 1019.9 1020.1 0.0
28/09:00am 9.3 9.2 9.3 100 0.0 CALM 0 0 0 0 1020.3 1020.5 1.6
28/08:30am 8.9 8.7 8.9 100 0.0 CALM 0 0 0 0 1020.7 1020.9 1.4
28/08:00am 8.7 8.0 8.7 100 0.0 SSE 2 6 1 3 1020.7 1020.9 1.4
28/07:30am 8.4 8.0 8.4 100 0.0 CALM 0 0 0 0 1021.3 1021.5 1.4
28/07:00am 8.3 7.9 8.3 100 0.0 CALM 0 0 0 0 1021.1 1021.3 1.4
28/06:30am 8.4 8.0 8.4 100 0.0 CALM 0 0 0 0 1021.1 1021.3 1.4
28/06:00am 8.5 7.8 8.5 100 0.0 S 2 6 1 3 1021.4 1021.6 1.4
28/05:30am 8.4 8.0 8.4 100 0.0 CALM 0 0 0 0 1022.0 1022.2 0.8
28/05:00am 8.7 8.4 8.7 100 0.0 CALM 0 0 0 0 1021.9 1022.1 0.4
28/04:30am 8.7 8.4 8.6 99 0.0 CALM 0 0 0 0 1021.6 1021.8 0.0
28/04:00am 8.5 8.1 8.4 99 0.0 CALM 0 0 0 0 1021.6 1021.8 0.0
28/03:30am 8.3 7.9 8.2 99 0.0 CALM 0 0 0 0 1021.7 1021.9 0.0
28/03:00am 8.3 7.9 8.2 99 0.0 CALM 0 0 0 0 1021.8 1022.0 0.0
28/02:30am 8.5 8.1 8.4 99 0.0 CALM 0 0 0 0 1022.0 1022.2 0.0
28/02:00am 8.6 8.2 8.3 98 0.1 CALM 0 0 0 0 1022.7 1022.9 0.0
28/01:30am 8.7 8.3 8.4 98 0.1 CALM 0 0 0 0 1022.7 1022.9 0.0
28/01:00am 8.5 8.1 8.4 99 0.0 CALM 0 0 0 0 1023.1 1023.3 0.0
28/12:30am 8.6 8.2 8.3 98 0.1 CALM 0 2 0 1 1023.2 1023.4 0.0
28/12:00am 8.7 8.3 8.4 98 0.1 CALM 0 2 0 1 1023.6 1023.8 0.0
 
Date/Time
WST
Temp
°C
App
Temp
°C
Dew
Point
Rel
Hum
%
Delta-T
°C
Wind Press
QNH
hPa
Press
MSL
hPa
Rain
since 9 am
mm
Dir
 
Spd
km/h
Gust
km/h
Spd
kts
Gust
kts
27/11:30pm 8.1 7.7 8.1 100 0.0 CALM 0 4 0 2 1024.0 1024.2 0.0
27/11:00pm 7.8 7.3 7.8 100 0.0 CALM 0 0 0 0 1024.2 1024.4 0.0
27/10:30pm 7.4 6.8 7.4 100 0.0 CALM 0 0 0 0 1024.6 1024.8 0.0
27/10:00pm 7.2 6.6 7.2 100 0.0 CALM 0 0 0 0 1024.6 1024.8 0.0
27/09:30pm 7.8 7.3 7.8 100 0.0 CALM 0 0 0 0 1024.5 1024.7 0.0
27/09:00pm 7.4 6.8 7.4 100 0.0 CALM 0 0 0 0 1024.8 1025.0 0.0
27/08:30pm 7.4 6.8 7.4 100 0.0 CALM 0 0 0 0 1024.9 1025.1 0.0
27/08:00pm 7.6 7.0 7.5 99 0.0 CALM 0 0 0 0 1025.3 1025.6 0.0
27/07:30pm 8.0 7.5 7.9 99 0.0 CALM 0 0 0 0 1025.8 1026.1 0.0
27/07:00pm 8.6 8.3 8.5 99 0.0 CALM 0 0 0 0 1026.1 1026.4 0.0
27/06:30pm 9.1 8.8 8.8 98 0.1 CALM 0 0 0 0 1026.6 1026.8 0.0
27/06:00pm 10.6 10.7 10.3 98 0.2 CALM 0 0 0 0 1026.1 1026.4 0.0
27/05:30pm 12.0 11.8 9.0 82 1.5 CALM 0 0 0 0 1025.5 1025.8 0.0
27/05:00pm 14.1 13.6 7.9 66 3.1 CALM 0 0 0 0 1025.6 1025.9 0.0
27/04:30pm 15.4 13.7 7.4 59 4.0 ENE 6 11 3 6 1025.1 1025.3 0.0
27/04:00pm 16.8 15.7 6.9 52 4.9 NNE 2 6 1 3 1025.3 1025.6 0.0
27/03:30pm 16.9 15.4 7.0 52 5.0 N 4 6 2 3 1025.3 1025.6 0.0
27/03:00pm 17.4 16.3 6.9 50 5.2 NW 2 7 1 4 1025.7 1026.0 0.0
27/02:30pm 17.1 15.5 8.0 55 4.7 E 6 9 3 5 1025.9 1026.2 0.0
27/02:00pm 16.5 14.9 8.2 58 4.2 NE 6 11 3 6 1026.1 1026.4 0.0
27/01:30pm 15.6 13.9 7.4 58 4.1 NNE 6 7 3 4 1026.7 1026.9 0.0
27/01:00pm 15.8 14.0 7.3 57 4.2 NNW 6 7 3 4 1027.2 1027.4 0.0
27/12:30pm 16.1 15.2 9.3 64 3.5 NNW 4 9 2 5 1027.9 1028.1 0.0
27/12:00pm 14.7 12.9 8.0 64 3.4 NNW 7 9 4 5 1029.0 1029.2 0.0

Other Formats:

Comma delimited format used in spreadsheet applications
http://www.bom.gov.au/fwo/IDW60801/IDW60801.95632.axf

JavaScript Object Notation format (JSON) in row-major order
http://www.bom.gov.au/fwo/IDW60801/IDW60801.95632.json